createdAt,value
2022-07-27T00:00:17.593Z,978.30
2022-07-27T00:01:17.845Z,978.29
2022-07-27T00:02:17.572Z,978.33
2022-07-27T00:03:17.690Z,978.29
2022-07-27T00:04:17.652Z,978.35
2022-07-27T00:05:17.669Z,978.36
2022-07-27T00:06:17.541Z,978.36
2022-07-27T00:07:17.720Z,978.28
2022-07-27T00:08:17.508Z,978.37
2022-07-27T00:09:17.659Z,978.30
2022-07-27T00:10:17.489Z,978.37
2022-07-27T00:11:17.662Z,978.38
2022-07-27T00:12:17.567Z,978.40
2022-07-27T00:13:17.693Z,978.45
2022-07-27T00:14:17.512Z,978.45
2022-07-27T00:15:17.383Z,978.46
2022-07-27T00:16:17.663Z,978.46
2022-07-27T00:17:17.374Z,978.45
2022-07-27T00:18:17.576Z,978.42
2022-07-27T00:19:17.355Z,978.43
2022-07-27T00:20:17.533Z,978.43
2022-07-27T00:21:17.343Z,978.44
2022-07-27T00:22:17.298Z,978.37
2022-07-27T00:23:17.361Z,978.39
2022-07-27T00:24:17.589Z,978.38
2022-07-27T00:25:17.339Z,978.33
2022-07-27T00:26:17.499Z,978.40
2022-07-27T00:27:17.341Z,978.38
2022-07-27T00:28:17.208Z,978.32
2022-07-27T00:29:17.331Z,978.45
2022-07-27T00:30:17.259Z,978.44
2022-07-27T00:31:17.420Z,978.46
2022-07-27T00:32:17.239Z,978.41
2022-07-27T00:33:17.698Z,978.42
2022-07-27T00:34:17.175Z,978.42
2022-07-27T00:35:17.342Z,978.42
2022-07-27T00:36:17.113Z,978.38
2022-07-27T00:37:17.115Z,978.39
2022-07-27T00:38:17.165Z,978.35
2022-07-27T00:39:17.073Z,978.36
2022-07-27T00:40:17.063Z,978.30
2022-07-27T00:41:17.034Z,978.36
2022-07-27T00:42:17.174Z,978.36
2022-07-27T00:43:17.037Z,978.35
2022-07-27T00:44:17.090Z,978.33
2022-07-27T00:45:17.070Z,978.34
2022-07-27T00:46:17.035Z,978.31
2022-07-27T00:47:17.040Z,978.34
2022-07-27T00:48:16.957Z,978.43
2022-07-27T00:49:17.369Z,978.29
2022-07-27T00:50:16.929Z,978.28
2022-07-27T00:51:17.018Z,978.26
2022-07-27T00:52:16.888Z,978.23
2022-07-27T00:53:17.019Z,978.26
2022-07-27T00:54:16.885Z,978.28
2022-07-27T00:55:16.933Z,978.31
2022-07-27T00:56:16.883Z,978.27
2022-07-27T00:57:16.823Z,978.29
2022-07-27T00:58:16.900Z,978.25
2022-07-27T00:59:17.023Z,978.30
2022-07-27T01:00:16.864Z,978.28
2022-07-27T01:01:17.223Z,978.28
2022-07-27T01:02:19.449Z,978.24
2022-07-27T01:03:16.885Z,978.22
2022-07-27T01:04:16.878Z,978.24
2022-07-27T01:05:16.758Z,978.22
2022-07-27T01:06:16.720Z,978.23
2022-07-27T01:07:16.809Z,978.24
2022-07-27T01:08:16.869Z,978.24
2022-07-27T01:09:16.698Z,978.22
2022-07-27T01:10:16.668Z,978.20
2022-07-27T01:11:16.698Z,978.17
2022-07-27T01:12:16.638Z,978.16
2022-07-27T01:13:16.784Z,978.17
2022-07-27T01:14:16.862Z,978.17
2022-07-27T01:15:16.712Z,978.11
2022-07-27T01:16:16.645Z,978.21
2022-07-27T01:17:16.714Z,978.20
2022-07-27T01:18:16.560Z,978.22
2022-07-27T01:19:16.603Z,978.21
2022-07-27T01:20:16.557Z,978.23
2022-07-27T01:21:16.784Z,978.16
2022-07-27T01:22:16.535Z,978.16
2022-07-27T01:23:16.706Z,978.17
2022-07-27T01:24:16.551Z,978.19
2022-07-27T01:25:16.709Z,978.16
2022-07-27T01:26:16.558Z,978.17
2022-07-27T01:27:16.518Z,978.20
2022-07-27T01:28:16.540Z,978.17
2022-07-27T01:29:16.421Z,978.17
2022-07-27T01:30:16.549Z,978.21
2022-07-27T01:31:16.440Z,978.23
2022-07-27T01:32:16.539Z,978.18
2022-07-27T01:33:16.447Z,978.22
2022-07-27T01:34:16.590Z,978.23
2022-07-27T01:35:16.358Z,978.22
2022-07-27T01:36:16.565Z,978.19
2022-07-27T01:37:16.315Z,978.18
2022-07-27T01:38:16.303Z,978.19
2022-07-27T01:39:16.273Z,978.20
2022-07-27T01:40:16.316Z,978.20
2022-07-27T01:41:16.452Z,978.24
2022-07-27T01:42:16.233Z,978.19
2022-07-27T01:43:16.212Z,978.15
2022-07-27T01:44:16.215Z,978.18
2022-07-27T01:45:16.382Z,978.14
2022-07-27T01:46:16.294Z,978.10
2022-07-27T01:47:16.248Z,978.13
2022-07-27T01:48:16.188Z,978.08
2022-07-27T01:49:16.711Z,978.09
2022-07-27T01:50:16.129Z,978.02
2022-07-27T01:51:16.378Z,978.06
2022-07-27T01:52:16.219Z,978.10
2022-07-27T01:53:16.182Z,978.05
2022-07-27T01:54:16.078Z,978.06
2022-07-27T01:55:16.065Z,978.02
2022-07-27T01:56:16.057Z,978.03
2022-07-27T01:57:16.066Z,977.97
2022-07-27T01:58:16.303Z,977.98
2022-07-27T01:59:17.099Z,977.97
2022-07-27T02:00:16.012Z,977.98
2022-07-27T02:01:16.171Z,977.92
2022-07-27T02:02:15.983Z,977.96
2022-07-27T02:03:16.075Z,977.99
2022-07-27T02:04:16.023Z,977.94
2022-07-27T02:05:16.108Z,977.95
2022-07-27T02:06:15.922Z,977.94
2022-07-27T02:07:16.067Z,977.90
2022-07-27T02:08:15.908Z,977.91
2022-07-27T02:09:16.068Z,977.95
2022-07-27T02:10:15.982Z,977.86
2022-07-27T02:11:15.848Z,977.89
2022-07-27T02:12:15.918Z,977.86
2022-07-27T02:13:22.213Z,977.88
2022-07-27T02:14:15.897Z,977.80
2022-07-27T02:15:15.842Z,977.85
2022-07-27T02:16:17.129Z,977.80
2022-07-27T02:17:15.797Z,977.76
2022-07-27T02:18:35.988Z,977.82
2022-07-27T02:19:16.231Z,977.82
2022-07-27T02:20:15.904Z,977.80
2022-07-27T02:21:15.824Z,977.84
2022-07-27T02:22:15.702Z,977.86
2022-07-27T02:23:15.743Z,977.84
2022-07-27T02:24:15.674Z,977.86
2022-07-27T02:25:15.731Z,977.81
2022-07-27T02:26:15.893Z,977.84
2022-07-27T02:27:15.693Z,977.85
2022-07-27T02:28:15.717Z,977.84
2022-07-27T02:29:15.748Z,977.85
2022-07-27T02:30:17.743Z,977.81
2022-07-27T02:31:15.749Z,977.81
2022-07-27T02:32:15.573Z,977.80
2022-07-27T02:33:15.789Z,977.80
2022-07-27T02:34:15.677Z,977.81
2022-07-27T02:35:18.585Z,977.81
2022-07-27T02:36:15.578Z,977.83
2022-07-27T02:37:15.487Z,977.81
2022-07-27T02:38:15.576Z,977.83
2022-07-27T02:39:15.764Z,977.87
2022-07-27T02:40:15.483Z,977.91
2022-07-27T02:41:15.512Z,977.92
2022-07-27T02:42:15.600Z,977.94
2022-07-27T02:43:15.494Z,977.92
2022-07-27T02:44:15.592Z,977.90
2022-07-27T02:45:15.421Z,977.96
2022-07-27T02:46:15.637Z,978.02
2022-07-27T02:47:15.363Z,978.00
2022-07-27T02:48:15.662Z,978.01
2022-07-27T02:49:15.892Z,977.96
2022-07-27T02:50:15.340Z,977.95
2022-07-27T02:51:15.443Z,978.01
2022-07-27T02:52:15.308Z,978.01
2022-07-27T02:53:15.296Z,977.95
2022-07-27T02:54:15.359Z,978.01
2022-07-27T02:55:15.277Z,977.99
2022-07-27T02:56:15.267Z,977.99
2022-07-27T02:57:15.257Z,978.03
2022-07-27T02:58:15.270Z,978.06
2022-07-27T02:59:15.230Z,978.05
2022-07-27T03:00:15.273Z,978.03
2022-07-27T03:01:15.251Z,978.04
2022-07-27T03:02:15.175Z,978.05
2022-07-27T03:03:15.154Z,978.02
2022-07-27T03:04:15.305Z,977.94
2022-07-27T03:05:15.122Z,978.01
2022-07-27T03:06:15.181Z,977.98
2022-07-27T03:07:15.102Z,977.97
2022-07-27T03:08:15.262Z,977.98
2022-07-27T03:09:15.518Z,977.99
2022-07-27T03:10:15.261Z,977.98
2022-07-27T03:11:15.127Z,977.99
2022-07-27T03:12:15.107Z,977.99
2022-07-27T03:13:15.107Z,977.98
2022-07-27T03:14:15.258Z,977.97
2022-07-27T03:15:15.119Z,977.98
2022-07-27T03:16:15.092Z,977.99
2022-07-27T03:17:15.098Z,978.01
2022-07-27T03:18:15.006Z,977.99
2022-07-27T03:19:15.253Z,978.01
2022-07-27T03:20:14.953Z,978.00
2022-07-27T03:21:14.932Z,977.94
2022-07-27T03:22:14.952Z,977.97
2022-07-27T03:23:15.176Z,978.00
2022-07-27T03:24:14.942Z,978.00
2022-07-27T03:25:15.106Z,978.01
2022-07-27T03:26:14.941Z,978.00
2022-07-27T03:27:15.092Z,978.00
2022-07-27T03:28:14.953Z,978.04
2022-07-27T03:29:14.920Z,978.06
2022-07-27T03:30:14.937Z,978.07
2022-07-27T03:31:14.805Z,978.10
2022-07-27T03:32:14.957Z,978.09
2022-07-27T03:33:14.787Z,978.13
2022-07-27T03:34:14.757Z,978.13
2022-07-27T03:35:14.899Z,978.14
2022-07-27T03:36:14.950Z,978.13
2022-07-27T03:37:14.777Z,978.14
2022-07-27T03:38:14.678Z,978.12
2022-07-27T03:39:15.144Z,978.16
2022-07-27T03:40:14.662Z,978.13
2022-07-27T03:41:14.842Z,978.19
2022-07-27T03:42:14.617Z,978.24
2022-07-27T03:43:14.617Z,978.17
2022-07-27T03:44:14.592Z,978.22
2022-07-27T03:45:14.781Z,978.25
2022-07-27T03:46:14.682Z,978.22
2022-07-27T03:47:14.864Z,978.26
2022-07-27T03:48:14.621Z,978.28
2022-07-27T03:49:15.441Z,978.27
2022-07-27T03:50:14.512Z,978.27
2022-07-27T03:51:14.502Z,978.25
2022-07-27T03:52:17.822Z,978.22
2022-07-27T03:53:14.531Z,978.26
2022-07-27T03:54:14.455Z,978.21
2022-07-27T03:55:14.464Z,978.22
2022-07-27T03:56:14.457Z,978.24
2022-07-27T03:57:14.457Z,978.23
2022-07-27T03:58:14.407Z,978.21
2022-07-27T03:59:15.068Z,978.22
2022-07-27T04:00:14.421Z,978.16
2022-07-27T04:01:14.433Z,978.14
2022-07-27T04:02:14.431Z,978.12
2022-07-27T04:03:14.458Z,978.11
2022-07-27T04:04:14.340Z,978.15
2022-07-27T04:05:14.412Z,978.15
2022-07-27T04:06:14.322Z,978.14
2022-07-27T04:07:14.471Z,978.13
2022-07-27T04:08:14.312Z,978.17
2022-07-27T04:09:14.759Z,978.15
2022-07-27T04:10:14.314Z,978.17
2022-07-27T04:11:14.291Z,978.15
2022-07-27T04:12:14.222Z,978.13
2022-07-27T04:13:14.202Z,978.08
2022-07-27T04:14:14.301Z,978.11
2022-07-27T04:15:14.205Z,978.06
2022-07-27T04:16:14.341Z,978.01
2022-07-27T04:17:55.448Z,977.99
2022-07-27T04:18:14.168Z,977.95
2022-07-27T04:19:14.488Z,977.93
2022-07-27T04:20:14.750Z,977.85
2022-07-27T04:21:14.157Z,977.92
2022-07-27T04:22:14.388Z,977.96
2022-07-27T04:23:14.137Z,977.96
2022-07-27T04:24:14.057Z,977.98
2022-07-27T04:25:14.139Z,978.00
2022-07-27T04:26:14.324Z,978.02
2022-07-27T04:27:14.141Z,978.00
2022-07-27T04:28:14.093Z,978.04
2022-07-27T04:29:19.972Z,978.05
2022-07-27T04:30:13.984Z,978.04
2022-07-27T04:31:14.262Z,978.02
2022-07-27T04:32:13.971Z,978.00
2022-07-27T04:33:14.132Z,977.96
2022-07-27T04:34:14.091Z,977.98
2022-07-27T04:35:14.132Z,978.03
2022-07-27T04:36:13.981Z,978.03
2022-07-27T04:37:14.150Z,978.02
2022-07-27T04:38:13.998Z,978.02
2022-07-27T04:39:14.431Z,978.02
2022-07-27T04:40:13.977Z,978.03
2022-07-27T04:41:13.837Z,978.08
2022-07-27T04:42:13.819Z,978.12
2022-07-27T04:43:13.826Z,978.15
2022-07-27T04:44:13.987Z,978.15
2022-07-27T04:45:13.882Z,978.14
2022-07-27T04:46:15.501Z,978.18
2022-07-27T04:47:13.819Z,978.15
2022-07-27T04:48:14.001Z,978.10
2022-07-27T04:49:14.253Z,978.17
2022-07-27T04:50:13.727Z,978.10
2022-07-27T04:51:13.902Z,978.19
2022-07-27T04:52:13.712Z,978.21
2022-07-27T04:53:13.802Z,978.20
2022-07-27T04:54:13.652Z,978.07
2022-07-27T04:55:13.802Z,978.14
2022-07-27T04:56:13.632Z,978.06
2022-07-27T04:57:13.672Z,978.13
2022-07-27T04:58:13.626Z,978.12
2022-07-27T04:59:13.907Z,978.16
2022-07-27T05:00:13.659Z,978.19
2022-07-27T05:01:13.680Z,978.21
2022-07-27T05:02:13.736Z,978.20
2022-07-27T05:03:13.560Z,978.17
2022-07-27T05:04:13.595Z,978.20
2022-07-27T05:05:13.517Z,978.21
2022-07-27T05:06:13.497Z,978.19
2022-07-27T05:07:13.567Z,978.24
2022-07-27T05:08:13.486Z,978.21
2022-07-27T05:09:13.940Z,978.18
2022-07-27T05:10:19.531Z,978.17
2022-07-27T05:11:13.460Z,978.11
2022-07-27T05:12:13.422Z,978.16
2022-07-27T05:13:13.591Z,978.12
2022-07-27T05:14:13.392Z,978.13
2022-07-27T05:15:13.511Z,978.16
2022-07-27T05:16:13.452Z,978.21
2022-07-27T05:17:13.493Z,978.19
2022-07-27T05:18:13.342Z,978.20
2022-07-27T05:19:14.077Z,978.24
2022-07-27T05:20:13.356Z,978.30
2022-07-27T05:21:13.526Z,978.33
2022-07-27T05:22:13.336Z,978.31
2022-07-27T05:23:13.267Z,978.32
2022-07-27T05:24:13.327Z,978.30
2022-07-27T05:25:13.567Z,978.26
2022-07-27T05:26:13.345Z,978.31
2022-07-27T05:27:13.227Z,978.27
2022-07-27T05:28:13.331Z,978.34
2022-07-27T05:29:13.649Z,978.33
2022-07-27T05:30:13.264Z,978.37
2022-07-27T05:31:13.262Z,978.31
2022-07-27T05:32:13.447Z,978.34
2022-07-27T05:33:13.202Z,978.30
2022-07-27T05:34:13.343Z,978.38
2022-07-27T05:35:13.193Z,978.33
2022-07-27T05:36:13.083Z,978.37
2022-07-27T05:37:13.273Z,978.35
2022-07-27T05:38:13.062Z,978.35
2022-07-27T05:39:13.934Z,978.36
2022-07-27T05:40:13.360Z,978.32
2022-07-27T05:41:13.177Z,978.28
2022-07-27T05:42:13.016Z,978.35
2022-07-27T05:43:13.298Z,978.33
2022-07-27T05:44:13.028Z,978.33
2022-07-27T05:45:13.187Z,978.32
2022-07-27T05:46:13.135Z,978.34
2022-07-27T05:47:12.946Z,978.29
2022-07-27T05:48:12.930Z,978.32
2022-07-27T05:49:13.752Z,978.37
2022-07-27T05:50:13.046Z,978.38
2022-07-27T05:51:13.189Z,978.32
2022-07-27T05:52:13.033Z,978.38
2022-07-27T05:53:12.879Z,978.38
2022-07-27T05:54:13.123Z,978.41
2022-07-27T05:55:12.872Z,978.37
2022-07-27T05:56:13.021Z,978.42
2022-07-27T05:57:12.866Z,978.43
2022-07-27T05:58:13.011Z,978.44
2022-07-27T05:59:13.328Z,978.50
2022-07-27T06:00:13.126Z,978.49
2022-07-27T06:01:12.874Z,978.48
2022-07-27T06:02:13.033Z,978.53
2022-07-27T06:03:12.797Z,978.51
2022-07-27T06:04:14.611Z,978.44
2022-07-27T06:05:15.855Z,978.51
2022-07-27T06:06:12.787Z,978.49
2022-07-27T06:07:12.857Z,978.49
2022-07-27T06:08:12.668Z,978.45
2022-07-27T06:09:13.026Z,978.45
2022-07-27T06:10:12.662Z,978.39
2022-07-27T06:11:12.653Z,978.39
2022-07-27T06:12:12.780Z,978.38
2022-07-27T06:13:12.592Z,978.35
2022-07-27T06:14:12.711Z,978.39
2022-07-27T06:15:12.582Z,978.36
2022-07-27T06:16:12.661Z,978.38
2022-07-27T06:17:12.544Z,978.38
2022-07-27T06:18:12.612Z,978.35
2022-07-27T06:19:13.076Z,978.36
2022-07-27T06:20:12.697Z,978.35
2022-07-27T06:21:12.541Z,978.29
2022-07-27T06:22:12.728Z,978.30
2022-07-27T06:23:12.537Z,978.27
2022-07-27T06:24:12.778Z,978.36
2022-07-27T06:25:12.537Z,978.35
2022-07-27T06:26:12.438Z,978.41
2022-07-27T06:27:12.567Z,978.40
2022-07-27T06:28:12.408Z,978.43
2022-07-27T06:29:12.942Z,978.38
2022-07-27T06:30:12.483Z,978.40
2022-07-27T06:31:12.629Z,978.44
2022-07-27T06:32:12.451Z,978.37
2022-07-27T06:33:12.546Z,978.39
2022-07-27T06:34:12.396Z,978.33
2022-07-27T06:35:12.706Z,978.33
2022-07-27T06:36:12.482Z,978.40
2022-07-27T06:37:12.557Z,978.36
2022-07-27T06:38:12.382Z,978.30
2022-07-27T06:39:12.972Z,978.33
2022-07-27T06:40:12.387Z,978.27
2022-07-27T06:41:12.357Z,978.32
2022-07-27T06:42:12.239Z,978.33
2022-07-27T06:43:12.217Z,978.31
2022-07-27T06:44:12.197Z,978.27
2022-07-27T06:45:12.298Z,978.29
2022-07-27T06:46:12.387Z,978.31
2022-07-27T06:47:12.346Z,978.31
2022-07-27T06:48:12.380Z,978.28
2022-07-27T06:49:12.606Z,978.26
2022-07-27T06:50:12.382Z,978.27
2022-07-27T06:51:12.232Z,978.38
2022-07-27T06:52:12.112Z,978.35
2022-07-27T06:53:12.177Z,978.38
2022-07-27T06:54:12.062Z,978.31
2022-07-27T06:55:12.042Z,978.34
2022-07-27T06:56:12.043Z,978.36
2022-07-27T06:57:12.032Z,978.36
2022-07-27T06:58:12.008Z,978.32
2022-07-27T06:59:12.716Z,978.40
2022-07-27T07:00:12.077Z,978.32
2022-07-27T07:01:12.311Z,978.35
2022-07-27T07:02:12.058Z,978.33
2022-07-27T07:03:12.230Z,978.39
2022-07-27T07:04:12.189Z,978.46
2022-07-27T07:05:11.987Z,978.42
2022-07-27T07:06:11.967Z,978.42
2022-07-27T07:07:11.897Z,978.43
2022-07-27T07:08:12.003Z,978.44
2022-07-27T07:09:12.158Z,978.39
2022-07-27T07:10:11.882Z,978.33
2022-07-27T07:11:11.854Z,978.35
2022-07-27T07:12:11.912Z,978.34
2022-07-27T07:13:11.988Z,978.38
2022-07-27T07:14:11.824Z,978.37
2022-07-27T07:15:11.792Z,978.35
2022-07-27T07:16:12.175Z,978.33
2022-07-27T07:17:11.902Z,978.32
2022-07-27T07:18:11.787Z,978.30
2022-07-27T07:19:12.224Z,978.26
2022-07-27T07:20:11.760Z,978.31
2022-07-27T07:21:11.736Z,978.36
2022-07-27T07:22:11.757Z,978.32
2022-07-27T07:23:11.688Z,978.26
2022-07-27T07:24:11.749Z,978.29
2022-07-27T07:25:11.728Z,978.24
2022-07-27T07:26:11.737Z,978.19
2022-07-27T07:27:11.668Z,978.25
2022-07-27T07:28:11.762Z,978.14
2022-07-27T07:29:11.909Z,978.22
2022-07-27T07:30:11.743Z,978.14
2022-07-27T07:31:12.463Z,978.15
2022-07-27T07:32:11.752Z,978.17
2022-07-27T07:33:11.583Z,978.15
2022-07-27T07:34:11.744Z,978.16
2022-07-27T07:35:11.585Z,978.15
2022-07-27T07:36:14.970Z,978.16
2022-07-27T07:37:11.688Z,978.14
2022-07-27T07:38:11.748Z,978.13
2022-07-27T07:39:11.976Z,978.18
2022-07-27T07:40:41.939Z,978.13
2022-07-27T07:41:11.609Z,978.14
2022-07-27T07:42:11.739Z,978.19
2022-07-27T07:43:11.649Z,978.20
2022-07-27T07:44:11.418Z,978.13
2022-07-27T07:45:11.578Z,978.02
2022-07-27T07:46:11.462Z,978.14
2022-07-27T07:47:11.635Z,978.15
2022-07-27T07:48:11.433Z,978.13
2022-07-27T07:49:11.914Z,978.18
2022-07-27T07:50:11.442Z,978.13
2022-07-27T07:51:11.314Z,978.10
2022-07-27T07:52:11.414Z,978.09
2022-07-27T07:53:11.307Z,978.08
2022-07-27T07:54:11.415Z,978.04
2022-07-27T07:55:11.343Z,978.09
2022-07-27T07:56:11.428Z,978.09
2022-07-27T07:57:11.259Z,978.11
2022-07-27T07:58:11.418Z,978.12
2022-07-27T07:59:11.539Z,978.13
2022-07-27T08:00:11.413Z,978.07
2022-07-27T08:01:11.260Z,978.15
2022-07-27T08:02:11.277Z,978.14
2022-07-27T08:03:11.370Z,978.09
2022-07-27T08:04:11.155Z,978.11
2022-07-27T08:05:11.164Z,978.11
2022-07-27T08:06:11.163Z,978.09
2022-07-27T08:07:11.333Z,978.09
2022-07-27T08:08:11.174Z,978.16
2022-07-27T08:09:11.459Z,978.15
2022-07-27T08:10:11.113Z,978.16
2022-07-27T08:11:11.075Z,978.16
2022-07-27T08:12:11.042Z,978.14
2022-07-27T08:13:11.033Z,978.14
2022-07-27T08:14:11.153Z,978.17
2022-07-27T08:15:11.277Z,978.15
2022-07-27T08:16:11.077Z,978.13
2022-07-27T08:17:10.987Z,978.14
2022-07-27T08:18:10.979Z,978.17
2022-07-27T08:19:11.642Z,978.11
2022-07-27T08:20:11.036Z,978.09
2022-07-27T08:21:10.939Z,978.10
2022-07-27T08:22:11.098Z,978.08
2022-07-27T08:23:10.933Z,978.11
2022-07-27T08:24:10.928Z,978.12
2022-07-27T08:25:11.022Z,978.09
2022-07-27T08:26:10.903Z,978.11
2022-07-27T08:27:10.943Z,978.08
2022-07-27T08:28:10.852Z,978.06
2022-07-27T08:29:13.759Z,978.09
2022-07-27T08:30:11.672Z,978.14
2022-07-27T08:31:14.173Z,978.09
2022-07-27T08:32:10.825Z,978.09
2022-07-27T08:33:10.947Z,978.12
2022-07-27T08:34:10.789Z,978.14
2022-07-27T08:35:10.777Z,978.06
2022-07-27T08:36:10.778Z,978.08
2022-07-27T08:37:15.382Z,978.05
2022-07-27T08:38:10.936Z,978.05
2022-07-27T08:39:19.093Z,978.08
2022-07-27T08:41:10.696Z,978.04
2022-07-27T08:42:10.802Z,978.07
2022-07-27T08:43:10.677Z,978.15
2022-07-27T08:44:10.883Z,978.12
2022-07-27T08:45:10.624Z,978.14
2022-07-27T08:46:10.882Z,978.17
2022-07-27T08:47:10.626Z,978.10
2022-07-27T08:48:10.773Z,978.14
2022-07-27T08:49:11.343Z,978.16
2022-07-27T08:50:10.773Z,978.17
2022-07-27T08:51:10.616Z,978.20
2022-07-27T08:52:10.787Z,978.18
2022-07-27T08:53:10.650Z,978.18
2022-07-27T08:54:10.509Z,978.18
2022-07-27T08:55:10.697Z,978.23
2022-07-27T08:56:10.777Z,978.25
2022-07-27T08:57:10.618Z,978.17
2022-07-27T08:58:10.444Z,978.12
2022-07-27T08:59:11.074Z,978.16
2022-07-27T09:00:10.457Z,978.11
2022-07-27T09:01:10.737Z,978.15
2022-07-27T09:02:10.543Z,978.12
2022-07-27T09:03:16.136Z,978.14
2022-07-27T09:04:10.454Z,978.10
2022-07-27T09:05:10.632Z,978.16
2022-07-27T09:06:10.463Z,978.14
2022-07-27T09:07:10.691Z,978.11
2022-07-27T09:08:10.533Z,978.16
2022-07-27T09:09:10.617Z,978.15
2022-07-27T09:10:10.477Z,978.12
2022-07-27T09:11:10.298Z,978.15
2022-07-27T09:12:10.287Z,978.15
2022-07-27T09:13:10.302Z,978.17
2022-07-27T09:14:10.546Z,978.16
2022-07-27T09:15:10.437Z,978.19
2022-07-27T09:16:19.704Z,978.16
2022-07-27T09:18:12.215Z,978.18
2022-07-27T09:18:17.084Z,978.21
2022-07-27T09:19:10.704Z,978.22
2022-07-27T09:20:14.333Z,978.20
2022-07-27T09:21:10.185Z,978.14
2022-07-27T09:22:10.143Z,978.23
2022-07-27T09:23:10.152Z,978.12
2022-07-27T09:24:23.461Z,978.20
2022-07-27T09:25:10.116Z,978.19
2022-07-27T09:26:27.600Z,978.15
2022-07-27T09:27:10.072Z,978.18
2022-07-27T09:28:10.137Z,978.22
2022-07-27T09:29:10.540Z,978.16
2022-07-27T09:30:10.047Z,978.17
2022-07-27T09:31:10.078Z,978.21
2022-07-27T09:32:10.217Z,978.18
2022-07-27T09:33:09.987Z,978.17
2022-07-27T09:34:10.148Z,978.21
2022-07-27T09:35:09.978Z,978.21
2022-07-27T09:36:10.139Z,978.15
2022-07-27T09:37:09.999Z,978.19
2022-07-27T09:38:10.222Z,978.19
2022-07-27T09:39:09.993Z,978.22
2022-07-27T09:40:09.912Z,978.23
2022-07-27T09:41:09.901Z,978.30
2022-07-27T09:42:09.883Z,978.27
2022-07-27T09:43:52.073Z,978.24
2022-07-27T09:44:34.903Z,978.28
2022-07-27T09:45:09.993Z,978.25
2022-07-27T09:46:10.034Z,978.34
2022-07-27T09:47:10.009Z,978.31
2022-07-27T09:48:09.847Z,978.28
2022-07-27T09:49:10.076Z,978.34
2022-07-27T09:50:09.918Z,978.33
2022-07-27T09:51:55.816Z,978.34
2022-07-27T09:52:09.828Z,978.33
2022-07-27T09:53:40.776Z,978.31
2022-07-27T09:54:10.271Z,978.32
2022-07-27T09:55:09.708Z,978.34
2022-07-27T09:56:09.934Z,978.36
2022-07-27T09:57:09.702Z,978.36
2022-07-27T09:58:15.495Z,978.29
2022-07-27T09:59:09.662Z,978.33
2022-07-27T10:00:09.813Z,978.30
2022-07-27T10:01:09.706Z,978.29
2022-07-27T10:02:10.040Z,978.28
2022-07-27T10:03:09.654Z,978.31
2022-07-27T10:04:10.378Z,978.26
2022-07-27T10:05:09.694Z,978.27
2022-07-27T10:06:09.841Z,978.30
2022-07-27T10:07:13.556Z,978.32
2022-07-27T10:08:09.618Z,978.33
2022-07-27T10:09:09.670Z,978.25
2022-07-27T10:10:09.519Z,978.22
2022-07-27T10:11:09.668Z,978.22
2022-07-27T10:12:09.489Z,978.23
2022-07-27T10:13:09.657Z,978.22
2022-07-27T10:14:10.034Z,978.18
2022-07-27T10:15:09.486Z,978.25
2022-07-27T10:16:09.563Z,978.22
2022-07-27T10:17:09.662Z,978.19
2022-07-27T10:18:09.493Z,978.18
2022-07-27T10:19:09.411Z,978.20
2022-07-27T10:20:09.463Z,978.22
2022-07-27T10:21:09.724Z,978.21
2022-07-27T10:22:09.511Z,978.21
2022-07-27T10:23:09.364Z,978.24
2022-07-27T10:24:09.679Z,978.27
2022-07-27T10:25:09.360Z,978.26
2022-07-27T10:26:09.319Z,978.28
2022-07-27T10:27:09.439Z,978.24
2022-07-27T10:28:09.291Z,978.26
2022-07-27T10:29:09.277Z,978.27
2022-07-27T10:30:09.261Z,978.28
2022-07-27T10:31:09.274Z,978.25
2022-07-27T10:32:09.227Z,978.25
2022-07-27T10:33:09.313Z,978.20
2022-07-27T10:34:09.507Z,978.25
2022-07-27T10:35:09.203Z,978.22
2022-07-27T10:36:13.479Z,978.18
2022-07-27T10:37:09.182Z,978.20
2022-07-27T10:38:09.173Z,978.14
2022-07-27T10:39:09.192Z,978.25
2022-07-27T10:40:09.253Z,978.25
2022-07-27T10:41:09.122Z,978.19
2022-07-27T10:42:09.198Z,978.23
2022-07-27T10:43:09.098Z,978.12
2022-07-27T10:44:09.645Z,978.15
2022-07-27T10:45:09.070Z,978.23
2022-07-27T10:46:09.319Z,978.20
2022-07-27T10:47:09.057Z,978.21
2022-07-27T10:48:09.027Z,978.16
2022-07-27T10:49:09.071Z,978.14
2022-07-27T10:50:09.209Z,978.18
2022-07-27T10:51:09.035Z,978.18
2022-07-27T10:52:09.064Z,978.16
2022-07-27T10:53:11.239Z,978.11
2022-07-27T10:54:12.145Z,978.13
2022-07-27T10:55:09.023Z,978.13
2022-07-27T10:56:09.183Z,978.11
2022-07-27T10:57:09.032Z,978.12
2022-07-27T10:58:08.953Z,978.15
2022-07-27T10:59:09.033Z,978.09
2022-07-27T11:00:13.357Z,978.10
2022-07-27T11:01:09.091Z,978.05
2022-07-27T11:02:08.859Z,978.02
2022-07-27T11:03:08.929Z,978.06
2022-07-27T11:04:09.170Z,977.99
2022-07-27T11:05:18.350Z,978.00
2022-07-27T11:07:27.435Z,978.00
2022-07-27T11:08:36.759Z,977.96
2022-07-27T11:10:08.834Z,977.98
2022-07-27T11:11:08.734Z,977.95
2022-07-27T11:12:08.872Z,977.91
2022-07-27T11:13:10.014Z,977.94
2022-07-27T11:14:08.968Z,977.93
2022-07-27T11:15:08.732Z,977.95
2022-07-27T11:16:23.467Z,977.86
2022-07-27T11:18:08.659Z,977.93
2022-07-27T11:19:08.752Z,977.98
2022-07-27T11:20:08.934Z,977.94
2022-07-27T11:21:08.778Z,977.95
2022-07-27T11:22:27.679Z,977.94
2022-07-27T11:24:08.993Z,977.94
2022-07-27T11:25:08.699Z,977.92
2022-07-27T11:26:08.557Z,977.96
2022-07-27T11:27:17.114Z,977.92
2022-07-27T11:28:08.533Z,977.94
2022-07-27T11:29:08.856Z,977.91
2022-07-27T11:30:08.503Z,977.93
2022-07-27T11:31:08.526Z,977.94
2022-07-27T11:32:08.512Z,977.97
2022-07-27T11:33:08.525Z,977.97
2022-07-27T11:34:08.442Z,977.89
2022-07-27T11:35:11.313Z,977.88
2022-07-27T11:36:08.449Z,977.89
2022-07-27T11:37:08.419Z,977.89
2022-07-27T11:38:08.399Z,977.84
2022-07-27T11:39:14.571Z,977.86
2022-07-27T11:40:48.113Z,977.85
2022-07-27T11:41:15.134Z,977.85
2022-07-27T11:42:11.859Z,977.85
2022-07-27T11:43:08.319Z,977.82
2022-07-27T11:44:08.309Z,977.80
2022-07-27T11:45:08.394Z,977.76
2022-07-27T11:46:08.405Z,977.79
2022-07-27T11:47:08.274Z,977.76
2022-07-27T11:48:08.257Z,977.80
2022-07-27T11:49:09.447Z,977.79
2022-07-27T11:50:08.413Z,977.78
2022-07-27T11:51:08.223Z,977.80
2022-07-27T11:52:08.294Z,977.77
2022-07-27T11:53:08.274Z,977.74
2022-07-27T11:54:08.228Z,977.76
2022-07-27T11:55:08.320Z,977.69
2022-07-27T11:56:08.219Z,977.81
2022-07-27T11:57:08.378Z,977.82
2022-07-27T11:58:08.228Z,977.80
2022-07-27T11:59:08.170Z,977.81
2022-07-27T12:00:08.289Z,977.84
2022-07-27T12:01:08.379Z,977.79
2022-07-27T12:02:08.306Z,977.76
2022-07-27T12:03:08.076Z,977.80
2022-07-27T12:04:08.084Z,977.78
2022-07-27T12:05:08.133Z,977.76
2022-07-27T12:06:08.104Z,977.80
2022-07-27T12:07:08.029Z,977.80
2022-07-27T12:08:08.224Z,977.74
2022-07-27T12:09:08.074Z,977.81
2022-07-27T12:10:08.223Z,977.81
2022-07-27T12:11:08.195Z,977.78
2022-07-27T12:12:08.318Z,977.80
2022-07-27T12:13:08.147Z,977.75
2022-07-27T12:14:07.951Z,977.75
2022-07-27T12:15:42.823Z,977.79
2022-07-27T12:16:07.908Z,977.78
2022-07-27T12:17:08.145Z,977.78
2022-07-27T12:18:07.896Z,977.78
2022-07-27T12:19:08.209Z,977.79
2022-07-27T12:20:07.898Z,977.82
2022-07-27T12:21:08.073Z,977.78
2022-07-27T12:22:07.925Z,977.82
2022-07-27T12:23:08.306Z,977.82
2022-07-27T12:24:07.904Z,977.82
2022-07-27T12:25:10.003Z,977.80
2022-07-27T12:26:07.977Z,977.80
2022-07-27T12:27:07.754Z,977.76
2022-07-27T12:28:07.764Z,977.75
2022-07-27T12:29:07.724Z,977.77
2022-07-27T12:30:07.924Z,977.70
2022-07-27T12:31:07.890Z,977.75
2022-07-27T12:32:07.799Z,977.76
2022-07-27T12:33:07.749Z,977.75